createdAt,value
2023-02-03T00:01:03.956Z,10.38
2023-02-03T00:06:05.487Z,21.40
2023-02-03T00:11:08.037Z,8.20
2023-02-03T00:16:09.073Z,10.07
2023-02-03T00:21:09.912Z,11.93
2023-02-03T00:26:13.947Z,11.45
2023-02-03T00:31:18.000Z,12.57
2023-02-03T00:36:20.176Z,10.10
2023-02-03T00:41:22.982Z,12.43
2023-02-03T00:46:25.339Z,9.90
2023-02-03T00:51:25.986Z,14.73
2023-02-03T00:56:29.916Z,15.20
2023-02-03T01:01:30.683Z,10.93
2023-02-03T01:06:31.423Z,14.57
2023-02-03T01:11:33.754Z,13.23
2023-02-03T01:16:38.160Z,9.68
2023-02-03T01:21:38.881Z,11.35
2023-02-03T01:26:40.870Z,9.90
2023-02-03T01:31:43.347Z,17.13
2023-02-03T01:36:44.315Z,15.02
2023-02-03T01:41:46.399Z,7.13
2023-02-03T01:46:50.604Z,12.10
2023-02-03T01:51:53.473Z,7.80
2023-02-03T01:57:00.001Z,15.25
2023-02-03T02:02:02.973Z,9.68
2023-02-03T02:07:04.291Z,9.25
2023-02-03T02:12:06.653Z,6.03
2023-02-03T02:17:19.872Z,3.85
2023-02-03T02:22:26.312Z,8.73
2023-02-03T02:27:46.137Z,8.98
2023-02-03T02:33:01.169Z,7.30
2023-02-03T02:38:07.893Z,10.75
2023-02-03T02:43:13.979Z,10.90
2023-02-03T02:48:24.166Z,14.63
2023-02-03T02:53:27.723Z,8.32
2023-02-03T02:58:33.086Z,11.30
2023-02-03T03:03:35.117Z,6.63
2023-02-03T03:08:40.027Z,7.22
2023-02-03T03:13:49.179Z,7.18
2023-02-03T03:18:57.221Z,5.60
2023-02-03T03:24:02.806Z,11.88
2023-02-03T03:29:11.756Z,12.05
2023-02-03T03:34:15.540Z,6.85
2023-02-03T03:39:22.875Z,8.90
2023-02-03T03:44:28.712Z,7.70
2023-02-03T03:49:35.078Z,6.97
2023-02-03T03:54:39.302Z,8.80
2023-02-03T03:59:42.510Z,6.03
2023-02-03T04:04:47.363Z,10.18
2023-02-03T04:09:49.465Z,8.63
2023-02-03T04:14:50.207Z,6.68
2023-02-03T04:19:52.205Z,7.95
2023-02-03T04:24:52.868Z,9.40
2023-02-03T04:29:53.582Z,8.88
2023-02-03T04:34:55.551Z,8.30
2023-02-03T04:39:56.463Z,8.32
2023-02-03T04:44:57.120Z,6.45
2023-02-03T04:49:59.090Z,6.38
2023-02-03T04:54:59.824Z,7.82
2023-02-03T05:00:00.491Z,9.38
2023-02-03T05:05:02.503Z,8.25
2023-02-03T05:10:03.188Z,9.10
2023-02-03T05:15:03.874Z,12.50
2023-02-03T05:20:06.605Z,6.70
2023-02-03T05:25:08.249Z,8.10
2023-02-03T05:30:10.923Z,7.85
2023-02-03T05:35:12.914Z,9.40
2023-02-03T05:40:32.232Z,14.82
2023-02-03T05:45:33.253Z,12.90
2023-02-03T05:50:38.483Z,10.45
2023-02-03T05:55:42.376Z,9.80
2023-02-03T06:00:43.030Z,8.23
2023-02-03T06:05:45.062Z,10.32
2023-02-03T06:10:45.719Z,11.27
2023-02-03T06:15:46.354Z,9.18
2023-02-03T06:20:48.680Z,15.15
2023-02-03T06:25:53.175Z,9.73
2023-02-03T06:30:54.038Z,8.93
2023-02-03T06:35:56.320Z,7.30
2023-02-03T06:40:56.955Z,7.47
2023-02-03T06:45:57.737Z,7.90
2023-02-03T06:50:59.780Z,9.73
2023-02-03T06:56:02.207Z,11.80
2023-02-03T07:01:07.208Z,11.38
2023-02-03T07:06:09.496Z,9.27
2023-02-03T07:11:12.086Z,8.80
2023-02-03T07:16:12.959Z,15.30
2023-02-03T07:21:15.765Z,10.45
2023-02-03T07:26:17.636Z,7.22
2023-02-03T07:31:18.478Z,7.55
2023-02-03T07:36:20.589Z,8.18
2023-02-03T07:41:21.284Z,5.00
2023-02-03T07:46:22.019Z,6.55
2023-02-03T07:51:24.084Z,5.28
2023-02-03T07:56:24.847Z,5.55
2023-02-03T08:01:25.927Z,7.50
2023-02-03T08:06:27.913Z,7.97
2023-02-03T08:11:28.547Z,8.00
2023-02-03T08:16:29.299Z,4.68
2023-02-03T08:21:32.037Z,8.52
2023-02-03T08:26:32.771Z,4.20
2023-02-03T08:31:33.559Z,4.10
2023-02-03T08:36:37.078Z,4.80
2023-02-03T08:41:37.737Z,5.13
2023-02-03T08:46:43.482Z,7.82
2023-02-03T08:51:46.825Z,3.53
2023-02-03T08:56:47.779Z,5.22
2023-02-03T09:01:48.615Z,9.75
2023-02-03T09:06:50.645Z,8.75
2023-02-03T09:11:51.289Z,4.78
2023-02-03T09:16:51.974Z,7.05
2023-02-03T09:21:54.014Z,4.32
2023-02-03T09:26:55.183Z,8.63
2023-02-03T09:31:55.974Z,6.80
2023-02-03T09:36:57.976Z,5.70
2023-02-03T09:42:16.769Z,5.43
2023-02-03T09:47:21.598Z,5.05
2023-02-03T09:52:26.373Z,6.68
2023-02-03T09:57:28.800Z,6.82
2023-02-03T10:02:45.095Z,11.68
2023-02-03T10:07:57.521Z,11.65
2023-02-03T10:13:13.753Z,10.45
2023-02-03T10:18:20.527Z,4.90
2023-02-03T10:23:29.489Z,8.55
2023-02-03T10:28:33.819Z,5.50
2023-02-03T10:33:34.523Z,8.95
2023-02-03T10:38:48.569Z,4.95
2023-02-03T10:43:52.664Z,4.97
2023-02-03T10:48:53.431Z,8.57
2023-02-03T10:53:55.484Z,7.63
2023-02-03T10:58:58.631Z,5.53
2023-02-03T11:04:01.917Z,9.90
2023-02-03T11:09:22.645Z,7.88
2023-02-03T11:14:23.300Z,4.57
2023-02-03T11:19:24.039Z,7.90
2023-02-03T11:24:29.414Z,5.25
2023-02-03T11:29:32.253Z,6.32
2023-02-03T11:34:37.918Z,3.95
2023-02-03T11:39:39.961Z,5.55
2023-02-03T11:44:40.601Z,6.53
2023-02-03T11:50:10.053Z,3.20
2023-02-03T11:55:22.342Z,3.85
2023-02-03T12:00:33.592Z,2.80
2023-02-03T12:05:45.689Z,2.95
2023-02-03T12:11:01.016Z,6.55
2023-02-03T12:16:15.330Z,1.77
2023-02-03T12:21:34.870Z,4.82
2023-02-03T12:26:44.001Z,1.85
2023-02-03T12:31:49.852Z,0.75
2023-02-03T12:36:57.937Z,4.70
2023-02-03T12:42:04.285Z,3.25
2023-02-03T12:47:13.615Z,1.90
2023-02-03T12:52:23.565Z,4.57
2023-02-03T12:57:32.886Z,2.88
2023-02-03T13:02:43.598Z,4.78
2023-02-03T13:07:50.395Z,4.47
2023-02-03T13:12:56.961Z,3.85
2023-02-03T13:18:02.404Z,4.93
2023-02-03T13:23:07.064Z,9.82
2023-02-03T13:28:19.986Z,9.07
2023-02-03T13:33:45.604Z,10.00
2023-02-03T13:39:06.023Z,5.30
2023-02-03T13:44:15.208Z,7.00
2023-02-03T13:49:23.787Z,9.20
2023-02-03T13:54:29.484Z,11.15
2023-02-03T13:59:42.356Z,13.90
2023-02-03T14:04:54.380Z,22.45
2023-02-03T14:10:21.290Z,16.65
2023-02-03T14:15:31.307Z,8.15
2023-02-03T14:20:52.799Z,20.92
2023-02-03T14:25:56.848Z,14.73
2023-02-03T14:31:12.620Z,38.25
2023-02-03T14:36:31.745Z,22.35
2023-02-03T14:41:46.474Z,17.98
2023-02-03T14:47:05.370Z,13.85
2023-02-03T14:52:19.094Z,11.60
2023-02-03T14:57:36.694Z,21.13
2023-02-03T15:03:19.999Z,12.93
2023-02-03T15:08:42.903Z,13.85
2023-02-03T15:13:43.591Z,15.27
2023-02-03T15:18:45.694Z,19.50
2023-02-03T15:23:49.377Z,18.13
2023-02-03T15:28:57.161Z,12.18
2023-02-03T15:34:04.579Z,20.15
2023-02-03T15:39:13.487Z,16.83
2023-02-03T15:44:29.261Z,20.50
2023-02-03T15:49:39.005Z,15.10
2023-02-03T15:54:46.017Z,24.20
2023-02-03T15:59:54.514Z,20.73
2023-02-03T16:04:57.095Z,22.45
2023-02-03T16:09:58.897Z,23.92
2023-02-03T16:15:01.935Z,23.13
2023-02-03T16:20:28.135Z,31.55
2023-02-03T16:25:31.331Z,18.85
2023-02-03T16:30:49.785Z,13.40
2023-02-03T16:36:09.291Z,18.08
2023-02-03T16:41:35.122Z,20.00
2023-02-03T16:46:53.533Z,15.50
2023-02-03T16:51:55.624Z,19.98
2023-02-03T16:56:58.477Z,25.52
2023-02-03T17:01:59.505Z,23.55
2023-02-03T17:07:02.949Z,18.55
2023-02-03T17:12:04.157Z,26.13
2023-02-03T17:17:04.832Z,14.10
2023-02-03T17:22:07.665Z,22.75
2023-02-03T17:27:08.384Z,22.13
2023-02-03T17:32:09.247Z,17.27
2023-02-03T17:37:11.429Z,23.20
2023-02-03T17:58:04.590Z,26.13
2023-02-03T18:03:05.252Z,16.23
2023-02-03T18:08:16.089Z,21.50
2023-02-03T18:13:18.289Z,17.40
2023-02-03T18:18:20.774Z,19.80
2023-02-03T18:23:23.039Z,20.25
2023-02-03T18:28:24.093Z,19.90
2023-02-03T18:33:24.824Z,16.88
2023-02-03T18:38:27.044Z,18.08
2023-02-03T18:43:27.745Z,22.70
2023-02-03T18:48:28.660Z,18.25
2023-02-03T18:53:32.366Z,24.77
2023-02-03T18:58:33.030Z,23.70
2023-02-03T19:03:34.360Z,20.85
2023-02-03T19:08:36.418Z,24.05
2023-02-03T19:13:37.129Z,27.05
2023-02-03T19:18:37.823Z,20.63
2023-02-03T19:23:39.932Z,17.42
2023-02-03T19:28:41.480Z,17.08
2023-02-03T19:33:42.394Z,23.10
2023-02-03T19:38:44.563Z,18.98
2023-02-03T19:43:47.519Z,22.45
2023-02-03T19:48:48.972Z,20.63
2023-02-03T19:53:52.482Z,22.70
2023-02-03T19:58:54.401Z,23.67
2023-02-03T20:03:55.112Z,17.83
2023-02-03T20:08:57.203Z,21.60
2023-02-03T20:13:57.979Z,20.23
2023-02-03T20:19:00.606Z,21.60
2023-02-03T20:24:02.636Z,13.80
2023-02-03T20:29:03.374Z,21.67
2023-02-03T20:34:05.074Z,20.58
2023-02-03T20:39:07.177Z,17.30
2023-02-03T20:44:11.039Z,21.83
2023-02-03T20:49:12.714Z,31.23
2023-02-03T20:54:18.238Z,31.65
2023-02-03T20:59:20.470Z,24.65
2023-02-03T21:04:38.956Z,24.05
2023-02-03T21:09:41.039Z,27.05
2023-02-03T21:14:43.523Z,18.20
2023-02-03T21:19:44.259Z,26.42
2023-02-03T21:24:51.095Z,25.40
2023-02-03T21:29:55.737Z,26.65
2023-02-03T21:34:56.541Z,19.58
2023-02-03T21:39:58.566Z,32.15
2023-02-03T21:44:59.274Z,24.50
2023-02-03T21:50:01.833Z,20.42
2023-02-03T21:55:13.554Z,14.77
2023-02-03T22:00:39.224Z,23.45
2023-02-03T22:05:39.953Z,19.58
2023-02-03T22:10:41.974Z,16.52
2023-02-03T22:15:43.320Z,32.35
2023-02-03T22:20:43.953Z,24.88
2023-02-03T22:25:46.135Z,25.10
2023-02-03T22:30:47.124Z,25.13
2023-02-03T22:35:47.862Z,20.83
2023-02-03T22:40:49.911Z,15.18
2023-02-03T22:45:50.682Z,22.45
2023-02-03T22:50:51.387Z,17.33
2023-02-03T22:55:53.391Z,23.20
2023-02-03T23:00:54.098Z,8.57
2023-02-03T23:05:56.447Z,17.10
2023-02-03T23:10:58.783Z,18.67
2023-02-03T23:15:59.519Z,17.70
2023-02-03T23:21:00.215Z,14.80
2023-02-03T23:26:02.193Z,13.38
2023-02-03T23:31:03.840Z,17.38
2023-02-03T23:36:04.839Z,17.25
2023-02-03T23:41:06.855Z,10.27
2023-02-03T23:46:07.791Z,11.50
2023-02-03T23:51:08.535Z,17.15
2023-02-03T23:56:10.667Z,15.10
